sensor_id;sensor_type;location;lat;lon;timestamp;pressure;altitude;pressure_sealevel;temperature;humidity
34073;BME280;20346;52.702;16.886;2023-12-07T00:02:35;101194.44;;;-1.80;81.90
34073;BME280;20346;52.702;16.886;2023-12-07T00:05:21;101194.61;;;-1.80;81.82
34073;BME280;20346;52.702;16.886;2023-12-07T00:08:09;101195.45;;;-1.80;81.87
34073;BME280;20346;52.702;16.886;2023-12-07T00:10:56;101194.77;;;-1.80;81.90
34073;BME280;20346;52.702;16.886;2023-12-07T00:13:42;101198.17;;;-1.80;81.85
34073;BME280;20346;52.702;16.886;2023-12-07T00:16:28;101200.05;;;-1.79;81.94
34073;BME280;20346;52.702;16.886;2023-12-07T00:19:15;101202.67;;;-1.77;81.96
34073;BME280;20346;52.702;16.886;2023-12-07T00:22:01;101200.32;;;-1.77;81.86
34073;BME280;20346;52.702;16.886;2023-12-07T00:24:47;101202.36;;;-1.77;81.93
34073;BME280;20346;52.702;16.886;2023-12-07T00:27:33;101202.36;;;-1.77;81.91
34073;BME280;20346;52.702;16.886;2023-12-07T00:30:19;101201.20;;;-1.76;81.94
34073;BME280;20346;52.702;16.886;2023-12-07T00:33:06;101200.23;;;-1.75;81.96
34073;BME280;20346;52.702;16.886;2023-12-07T00:35:52;101200.63;;;-1.74;81.94
34073;BME280;20346;52.702;16.886;2023-12-07T00:38:38;101199.55;;;-1.75;81.88
34073;BME280;20346;52.702;16.886;2023-12-07T00:41:24;101199.02;;;-1.76;81.93
34073;BME280;20346;52.702;16.886;2023-12-07T00:44:10;101202.01;;;-1.77;81.91
34073;BME280;20346;52.702;16.886;2023-12-07T00:46:56;101202.98;;;-1.78;82.01
34073;BME280;20346;52.702;16.886;2023-12-07T00:49:42;101203.08;;;-1.79;81.95
34073;BME280;20346;52.702;16.886;2023-12-07T00:52:28;101209.92;;;-1.81;81.96
34073;BME280;20346;52.702;16.886;2023-12-07T00:55:14;101208.79;;;-1.84;81.96
34073;BME280;20346;52.702;16.886;2023-12-07T00:58:00;101213.80;;;-1.86;82.03
34073;BME280;20346;52.702;16.886;2023-12-07T01:00:47;101212.00;;;-1.84;82.12
34073;BME280;20346;52.702;16.886;2023-12-07T01:03:33;101211.48;;;-1.84;82.07
34073;BME280;20346;52.702;16.886;2023-12-07T01:06:19;101215.36;;;-1.85;82.10
34073;BME280;20346;52.702;16.886;2023-12-07T01:09:05;101215.52;;;-1.85;82.12
34073;BME280;20346;52.702;16.886;2023-12-07T01:11:51;101220.39;;;-1.85;82.05
34073;BME280;20346;52.702;16.886;2023-12-07T01:14:37;101223.42;;;-1.86;82.10
34073;BME280;20346;52.702;16.886;2023-12-07T01:17:23;101223.73;;;-1.86;82.04
34073;BME280;20346;52.702;16.886;2023-12-07T01:20:10;101230.23;;;-1.85;82.12
34073;BME280;20346;52.702;16.886;2023-12-07T01:22:58;101229.92;;;-1.84;82.14
34073;BME280;20346;52.702;16.886;2023-12-07T01:25:44;101228.09;;;-1.83;82.11
34073;BME280;20346;52.702;16.886;2023-12-07T01:28:30;101229.31;;;-1.82;82.04
34073;BME280;20346;52.702;16.886;2023-12-07T01:31:17;101227.11;;;-1.83;82.08
34073;BME280;20346;52.702;16.886;2023-12-07T01:34:03;101227.35;;;-1.85;82.08
34073;BME280;20346;52.702;16.886;2023-12-07T01:36:49;101227.56;;;-1.84;82.21
34073;BME280;20346;52.702;16.886;2023-12-07T01:39:35;101226.14;;;-1.85;82.12
34073;BME280;20346;52.702;16.886;2023-12-07T01:42:21;101224.80;;;-1.85;82.21
34073;BME280;20346;52.702;16.886;2023-12-07T01:45:07;101228.07;;;-1.84;82.08
34073;BME280;20346;52.702;16.886;2023-12-07T01:47:54;101226.36;;;-1.84;82.16
34073;BME280;20346;52.702;16.886;2023-12-07T01:51:00;101226.05;;;-1.83;82.18
34073;BME280;20346;52.702;16.886;2023-12-07T01:53:46;101221.55;;;-1.82;82.12
34073;BME280;20346;52.702;16.886;2023-12-07T01:56:33;101226.99;;;-1.81;82.20
34073;BME280;20346;52.702;16.886;2023-12-07T01:59:20;101225.84;;;-1.81;82.22
34073;BME280;20346;52.702;16.886;2023-12-07T02:02:07;101232.40;;;-1.81;82.13
34073;BME280;20346;52.702;16.886;2023-12-07T02:04:54;101230.57;;;-1.81;82.17
34073;BME280;20346;52.702;16.886;2023-12-07T02:07:43;101228.87;;;-1.81;82.18
34073;BME280;20346;52.702;16.886;2023-12-07T02:10:29;101224.50;;;-1.80;82.16
34073;BME280;20346;52.702;16.886;2023-12-07T02:13:15;101225.56;;;-1.79;82.25
34073;BME280;20346;52.702;16.886;2023-12-07T02:16:07;101228.34;;;-1.78;82.19
34073;BME280;20346;52.702;16.886;2023-12-07T02:19:24;101224.75;;;-1.79;82.18
34073;BME280;20346;52.702;16.886;2023-12-07T02:22:23;101224.45;;;-1.78;82.21
34073;BME280;20346;52.702;16.886;2023-12-07T02:25:14;101227.94;;;-1.75;82.21
34073;BME280;20346;52.702;16.886;2023-12-07T02:28:00;101233.88;;;-1.74;82.24
34073;BME280;20346;52.702;16.886;2023-12-07T02:30:46;101237.57;;;-1.75;82.21
34073;BME280;20346;52.702;16.886;2023-12-07T02:33:33;101234.65;;;-1.77;82.25
34073;BME280;20346;52.702;16.886;2023-12-07T02:36:22;101233.92;;;-1.77;82.27
34073;BME280;20346;52.702;16.886;2023-12-07T02:39:11;101234.84;;;-1.80;82.24
34073;BME280;20346;52.702;16.886;2023-12-07T02:41:58;101231.59;;;-1.81;82.29
34073;BME280;20346;52.702;16.886;2023-12-07T02:44:45;101229.68;;;-1.82;82.25
34073;BME280;20346;52.702;16.886;2023-12-07T02:47:31;101230.15;;;-1.82;82.31
34073;BME280;20346;52.702;16.886;2023-12-07T02:50:17;101227.84;;;-1.81;82.36
34073;BME280;20346;52.702;16.886;2023-12-07T02:53:03;101228.91;;;-1.80;82.33
34073;BME280;20346;52.702;16.886;2023-12-07T02:55:49;101235.02;;;-1.79;82.30
34073;BME280;20346;52.702;16.886;2023-12-07T02:58:35;101237.39;;;-1.80;82.21
34073;BME280;20346;52.702;16.886;2023-12-07T03:01:21;101241.33;;;-1.78;82.28
34073;BME280;20346;52.702;16.886;2023-12-07T03:04:07;101240.18;;;-1.77;82.31
34073;BME280;20346;52.702;16.886;2023-12-07T03:06:53;101240.11;;;-1.75;82.38
34073;BME280;20346;52.702;16.886;2023-12-07T03:09:39;101238.20;;;-1.73;82.37
34073;BME280;20346;52.702;16.886;2023-12-07T03:12:25;101238.97;;;-1.70;82.33
34073;BME280;20346;52.702;16.886;2023-12-07T03:15:11;101242.05;;;-1.70;82.32
34073;BME280;20346;52.702;16.886;2023-12-07T03:17:59;101243.75;;;-1.69;82.37
34073;BME280;20346;52.702;16.886;2023-12-07T03:20:45;101252.73;;;-1.69;82.33
34073;BME280;20346;52.702;16.886;2023-12-07T03:23:31;101256.51;;;-1.68;82.32
34073;BME280;20346;52.702;16.886;2023-12-07T03:26:17;101264.05;;;-1.65;82.32
34073;BME280;20346;52.702;16.886;2023-12-07T03:29:03;101265.23;;;-1.65;82.39
34073;BME280;20346;52.702;16.886;2023-12-07T03:31:49;101271.02;;;-1.64;82.41
34073;BME280;20346;52.702;16.886;2023-12-07T03:34:35;101277.62;;;-1.64;82.42
34073;BME280;20346;52.702;16.886;2023-12-07T03:37:21;101277.72;;;-1.65;82.35
34073;BME280;20346;52.702;16.886;2023-12-07T03:40:08;101283.45;;;-1.66;82.36
34073;BME280;20346;52.702;16.886;2023-12-07T03:42:54;101280.27;;;-1.65;82.43
34073;BME280;20346;52.702;16.886;2023-12-07T03:45:40;101283.50;;;-1.65;82.42
34073;BME280;20346;52.702;16.886;2023-12-07T03:48:26;101287.38;;;-1.64;82.33
34073;BME280;20346;52.702;16.886;2023-12-07T03:51:13;101290.53;;;-1.66;82.41
34073;BME280;20346;52.702;16.886;2023-12-07T03:54:03;101292.90;;;-1.67;82.45
34073;BME280;20346;52.702;16.886;2023-12-07T03:56:49;101295.35;;;-1.64;82.48
34073;BME280;20346;52.702;16.886;2023-12-07T03:59:36;101295.89;;;-1.64;82.45
34073;BME280;20346;52.702;16.886;2023-12-07T04:02:22;101294.05;;;-1.63;82.45
34073;BME280;20346;52.702;16.886;2023-12-07T04:05:08;101297.45;;;-1.62;82.45
34073;BME280;20346;52.702;16.886;2023-12-07T04:07:54;101292.23;;;-1.62;82.46
34073;BME280;20346;52.702;16.886;2023-12-07T04:10:40;101296.11;;;-1.62;82.52
34073;BME280;20346;52.702;16.886;2023-12-07T04:13:26;101296.01;;;-1.61;82.56
34073;BME280;20346;52.702;16.886;2023-12-07T04:16:12;101291.14;;;-1.60;82.51
34073;BME280;20346;52.702;16.886;2023-12-07T04:18:58;101289.35;;;-1.58;82.56
34073;BME280;20346;52.702;16.886;2023-12-07T04:21:45;101291.20;;;-1.59;82.51
34073;BME280;20346;52.702;16.886;2023-12-07T04:24:31;101290.41;;;-1.57;82.55
34073;BME280;20346;52.702;16.886;2023-12-07T04:27:17;101291.14;;;-1.56;82.58
34073;BME280;20346;52.702;16.886;2023-12-07T04:30:04;101292.13;;;-1.57;82.53
34073;BME280;20346;52.702;16.886;2023-12-07T04:32:50;101296.31;;;-1.58;82.56
34073;BME280;20346;52.702;16.886;2023-12-07T04:35:36;101299.02;;;-1.58;82.55
34073;BME280;20346;52.702;16.886;2023-12-07T04:38:22;101303.71;;;-1.59;82.53
34073;BME280;20346;52.702;16.886;2023-12-07T04:41:09;101308.25;;;-1.59;82.56
34073;BME280;20346;52.702;16.886;2023-12-07T04:43:55;101310.08;;;-1.60;82.60
34073;BME280;20346;52.702;16.886;2023-12-07T04:46:42;101313.55;;;-1.62;82.51
34073;BME280;20346;52.702;16.886;2023-12-07T04:49:28;101313.79;;;-1.64;82.51
34073;BME280;20346;52.702;16.886;2023-12-07T04:52:15;101315.95;;;-1.65;82.58
34073;BME280;20346;52.702;16.886;2023-12-07T04:55:01;101315.20;;;-1.66;82.59
34073;BME280;20346;52.702;16.886;2023-12-07T04:57:47;101317.21;;;-1.67;82.61
34073;BME280;20346;52.702;16.886;2023-12-07T05:00:34;101314.63;;;-1.68;82.53
34073;BME280;20346;52.702;16.886;2023-12-07T05:03:20;101314.57;;;-1.69;82.58
34073;BME280;20346;52.702;16.886;2023-12-07T05:06:06;101318.30;;;-1.69;82.63
34073;BME280;20346;52.702;16.886;2023-12-07T05:08:53;101319.96;;;-1.70;82.68
34073;BME280;20346;52.702;16.886;2023-12-07T05:11:40;101318.62;;;-1.70;82.83
34073;BME280;20346;52.702;16.886;2023-12-07T05:14:26;101324.54;;;-1.69;82.76
34073;BME280;20346;52.702;16.886;2023-12-07T05:17:12;101328.45;;;-1.72;82.93
34073;BME280;20346;52.702;16.886;2023-12-07T05:19:59;101330.77;;;-1.77;82.64
34073;BME280;20346;52.702;16.886;2023-12-07T05:22:46;101334.98;;;-1.81;82.63
34073;BME280;20346;52.702;16.886;2023-12-07T05:25:32;101339.77;;;-1.84;82.73
34073;BME280;20346;52.702;16.886;2023-12-07T05:28:19;101345.98;;;-1.88;82.67
34073;BME280;20346;52.702;16.886;2023-12-07T05:31:05;101348.25;;;-1.90;82.71
34073;BME280;20346;52.702;16.886;2023-12-07T05:33:53;101347.98;;;-1.89;82.80
34073;BME280;20346;52.702;16.886;2023-12-07T05:36:39;101349.49;;;-1.85;82.74
34073;BME280;20346;52.702;16.886;2023-12-07T05:39:26;101348.49;;;-1.81;82.76
34073;BME280;20346;52.702;16.886;2023-12-07T05:42:12;101346.77;;;-1.79;82.85
34073;BME280;20346;52.702;16.886;2023-12-07T05:44:58;101349.20;;;-1.77;82.74
34073;BME280;20346;52.702;16.886;2023-12-07T05:47:45;101347.08;;;-1.75;82.77
34073;BME280;20346;52.702;16.886;2023-12-07T05:50:31;101350.38;;;-1.73;82.82
34073;BME280;20346;52.702;16.886;2023-12-07T05:53:18;101352.34;;;-1.71;82.85
34073;BME280;20346;52.702;16.886;2023-12-07T05:56:05;101351.73;;;-1.70;82.84
34073;BME280;20346;52.702;16.886;2023-12-07T05:58:51;101350.95;;;-1.72;82.83
34073;BME280;20346;52.702;16.886;2023-12-07T06:01:37;101352.43;;;-1.73;82.88
34073;BME280;20346;52.702;16.886;2023-12-07T06:04:23;101354.13;;;-1.73;82.84
34073;BME280;20346;52.702;16.886;2023-12-07T06:07:09;101356.23;;;-1.71;82.84
34073;BME280;20346;52.702;16.886;2023-12-07T06:09:55;101359.16;;;-1.70;82.86
34073;BME280;20346;52.702;16.886;2023-12-07T06:12:42;101364.60;;;-1.69;82.97
34073;BME280;20346;52.702;16.886;2023-12-07T06:15:28;101360.08;;;-1.68;82.85
34073;BME280;20346;52.702;16.886;2023-12-07T06:18:14;101363.98;;;-1.68;82.86
34073;BME280;20346;52.702;16.886;2023-12-07T06:21:01;101363.68;;;-1.67;82.89
34073;BME280;20346;52.702;16.886;2023-12-07T06:23:49;101368.11;;;-1.66;82.76
34073;BME280;20346;52.702;16.886;2023-12-07T06:26:35;101370.66;;;-1.66;82.82
34073;BME280;20346;52.702;16.886;2023-12-07T06:29:22;101373.21;;;-1.65;82.85
34073;BME280;20346;52.702;16.886;2023-12-07T06:32:08;101371.35;;;-1.66;82.88
34073;BME280;20346;52.702;16.886;2023-12-07T06:34:55;101371.24;;;-1.64;82.88
34073;BME280;20346;52.702;16.886;2023-12-07T06:37:41;101374.79;;;-1.64;82.86
34073;BME280;20346;52.702;16.886;2023-12-07T06:40:28;101377.80;;;-1.65;82.84
34073;BME280;20346;52.702;16.886;2023-12-07T06:43:14;101382.33;;;-1.66;82.86
34073;BME280;20346;52.702;16.886;2023-12-07T06:46:00;101387.95;;;-1.65;82.91
34073;BME280;20346;52.702;16.886;2023-12-07T06:48:47;101388.47;;;-1.64;82.94
34073;BME280;20346;52.702;16.886;2023-12-07T06:51:33;101391.90;;;-1.63;82.98
34073;BME280;20346;52.702;16.886;2023-12-07T06:54:19;101397.65;;;-1.63;82.94
34073;BME280;20346;52.702;16.886;2023-12-07T06:57:06;101398.66;;;-1.63;83.00
34073;BME280;20346;52.702;16.886;2023-12-07T06:59:55;101399.34;;;-1.64;83.04
34073;BME280;20346;52.702;16.886;2023-12-07T07:02:41;101403.77;;;-1.62;83.05
34073;BME280;20346;52.702;16.886;2023-12-07T07:05:28;101402.98;;;-1.61;83.00
34073;BME280;20346;52.702;16.886;2023-12-07T07:08:14;101411.08;;;-1.62;82.88
34073;BME280;20346;52.702;16.886;2023-12-07T07:11:00;101414.96;;;-1.62;82.95
34073;BME280;20346;52.702;16.886;2023-12-07T07:13:47;101418.86;;;-1.62;83.01
34073;BME280;20346;52.702;16.886;2023-12-07T07:16:33;101413.96;;;-1.62;82.91
34073;BME280;20346;52.702;16.886;2023-12-07T07:19:19;101411.14;;;-1.61;83.08
34073;BME280;20346;52.702;16.886;2023-12-07T07:22:06;101407.71;;;-1.58;83.10
34073;BME280;20346;52.702;16.886;2023-12-07T07:24:52;101408.06;;;-1.58;83.00
34073;BME280;20346;52.702;16.886;2023-12-07T07:27:38;101410.42;;;-1.58;83.03
34073;BME280;20346;52.702;16.886;2023-12-07T07:30:25;101408.25;;;-1.57;82.97
34073;BME280;20346;52.702;16.886;2023-12-07T07:33:12;101408.45;;;-1.56;83.07
34073;BME280;20346;52.702;16.886;2023-12-07T07:35:58;101409.23;;;-1.53;83.03
34073;BME280;20346;52.702;16.886;2023-12-07T07:38:45;101411.34;;;-1.52;83.05
34073;BME280;20346;52.702;16.886;2023-12-07T07:41:31;101408.67;;;-1.51;83.06
34073;BME280;20346;52.702;16.886;2023-12-07T07:44:18;101410.61;;;-1.49;83.03
34073;BME280;20346;52.702;16.886;2023-12-07T07:47:04;101414.23;;;-1.48;83.03
34073;BME280;20346;52.702;16.886;2023-12-07T07:49:50;101417.88;;;-1.46;83.15
34073;BME280;20346;52.702;16.886;2023-12-07T07:52:37;101418.30;;;-1.44;83.14
34073;BME280;20346;52.702;16.886;2023-12-07T07:55:23;101421.30;;;-1.45;83.11
34073;BME280;20346;52.702;16.886;2023-12-07T07:58:10;101421.90;;;-1.43;83.14
34073;BME280;20346;52.702;16.886;2023-12-07T08:00:56;101420.00;;;-1.40;83.09
34073;BME280;20346;52.702;16.886;2023-12-07T08:03:42;101415.41;;;-1.37;83.12
34073;BME280;20346;52.702;16.886;2023-12-07T08:06:28;101414.73;;;-1.33;83.22
34073;BME280;20346;52.702;16.886;2023-12-07T08:09:14;101417.20;;;-1.31;83.18
34073;BME280;20346;52.702;16.886;2023-12-07T08:12:01;101420.69;;;-1.28;83.18
34073;BME280;20346;52.702;16.886;2023-12-07T08:14:47;101423.03;;;-1.25;83.17
34073;BME280;20346;52.702;16.886;2023-12-07T08:17:34;101426.88;;;-1.22;83.12
34073;BME280;20346;52.702;16.886;2023-12-07T08:20:21;101425.45;;;-1.20;83.12
34073;BME280;20346;52.702;16.886;2023-12-07T08:23:07;101430.00;;;-1.17;83.23
34073;BME280;20346;52.702;16.886;2023-12-07T08:25:54;101431.92;;;-1.16;83.19
34073;BME280;20346;52.702;16.886;2023-12-07T08:28:43;101436.80;;;-1.16;83.23
34073;BME280;20346;52.702;16.886;2023-12-07T08:31:30;101438.84;;;-1.16;83.22
34073;BME280;20346;52.702;16.886;2023-12-07T08:34:16;101439.41;;;-1.14;83.22
34073;BME280;20346;52.702;16.886;2023-12-07T08:37:03;101441.54;;;-1.12;83.35
34073;BME280;20346;52.702;16.886;2023-12-07T08:39:49;101440.38;;;-1.08;83.31
34073;BME280;20346;52.702;16.886;2023-12-07T08:42:35;101444.82;;;-1.07;83.31
34073;BME280;20346;52.702;16.886;2023-12-07T08:45:21;101447.27;;;-1.05;83.22
34073;BME280;20346;52.702;16.886;2023-12-07T08:48:08;101446.30;;;-1.03;83.23
34073;BME280;20346;52.702;16.886;2023-12-07T08:50:54;101446.20;;;-1.02;83.28
34073;BME280;20346;52.702;16.886;2023-12-07T08:53:40;101444.80;;;-0.99;83.39
34073;BME280;20346;52.702;16.886;2023-12-07T08:56:27;101445.90;;;-0.97;83.32
34073;BME280;20346;52.702;16.886;2023-12-07T08:59:13;101444.90;;;-0.97;83.23
34073;BME280;20346;52.702;16.886;2023-12-07T09:02:00;101449.84;;;-0.96;83.23
34073;BME280;20346;52.702;16.886;2023-12-07T09:04:46;101450.28;;;-0.94;83.26
34073;BME280;20346;52.702;16.886;2023-12-07T09:07:32;101452.13;;;-0.90;83.25
34073;BME280;20346;52.702;16.886;2023-12-07T09:10:19;101455.04;;;-0.89;83.29
34073;BME280;20346;52.702;16.886;2023-12-07T09:13:05;101458.05;;;-0.90;83.28
34073;BME280;20346;52.702;16.886;2023-12-07T09:15:51;101458.65;;;-0.88;83.22
34073;BME280;20346;52.702;16.886;2023-12-07T09:18:37;101464.27;;;-0.87;83.30
34073;BME280;20346;52.702;16.886;2023-12-07T09:21:23;101464.23;;;-0.85;83.28
34073;BME280;20346;52.702;16.886;2023-12-07T09:24:09;101463.19;;;-0.81;83.27
34073;BME280;20346;52.702;16.886;2023-12-07T09:26:55;101459.74;;;-0.79;83.28
34073;BME280;20346;52.702;16.886;2023-12-07T09:29:41;101456.85;;;-0.79;83.19
34073;BME280;20346;52.702;16.886;2023-12-07T09:32:27;101454.04;;;-0.74;83.32
34073;BME280;20346;52.702;16.886;2023-12-07T09:35:14;101455.30;;;-0.68;83.28
34073;BME280;20346;52.702;16.886;2023-12-07T09:38:06;101447.11;;;-0.66;83.22
34073;BME280;20346;52.702;16.886;2023-12-07T09:40:53;101446.64;;;-0.61;83.33
34073;BME280;20346;52.702;16.886;2023-12-07T09:43:39;101445.17;;;-0.55;83.32
34073;BME280;20346;52.702;16.886;2023-12-07T09:46:25;101449.97;;;-0.49;83.33
34073;BME280;20346;52.702;16.886;2023-12-07T09:49:11;101452.34;;;-0.49;83.23
34073;BME280;20346;52.702;16.886;2023-12-07T09:51:58;101448.52;;;-0.48;83.34
34073;BME280;20346;52.702;16.886;2023-12-07T09:54:46;101443.86;;;-0.46;83.31
34073;BME280;20346;52.702;16.886;2023-12-07T09:57:32;101438.70;;;-0.44;83.36
34073;BME280;20346;52.702;16.886;2023-12-07T10:00:19;101438.13;;;-0.41;83.32
34073;BME280;20346;52.702;16.886;2023-12-07T10:03:06;101441.80;;;-0.38;83.37
34073;BME280;20346;52.702;16.886;2023-12-07T10:05:57;101448.30;;;-0.41;83.17
34073;BME280;20346;52.702;16.886;2023-12-07T10:08:44;101450.83;;;-0.45;83.26
34073;BME280;20346;52.702;16.886;2023-12-07T10:11:32;101451.75;;;-0.47;83.26
34073;BME280;20346;52.702;16.886;2023-12-07T10:14:18;101448.88;;;-0.47;83.35
34073;BME280;20346;52.702;16.886;2023-12-07T10:17:04;101445.10;;;-0.49;83.32
34073;BME280;20346;52.702;16.886;2023-12-07T10:20:07;101444.48;;;-0.47;83.45
34073;BME280;20346;52.702;16.886;2023-12-07T10:23:08;101439.94;;;-0.43;83.50
34073;BME280;20346;52.702;16.886;2023-12-07T10:25:54;101435.35;;;-0.39;83.41
34073;BME280;20346;52.702;16.886;2023-12-07T10:28:40;101437.30;;;-0.41;83.36
34073;BME280;20346;52.702;16.886;2023-12-07T10:31:26;101434.55;;;-0.42;83.39
34073;BME280;20346;52.702;16.886;2023-12-07T10:34:13;101437.92;;;-0.42;83.39
34073;BME280;20346;52.702;16.886;2023-12-07T10:36:59;101436.08;;;-0.41;83.44
34073;BME280;20346;52.702;16.886;2023-12-07T10:39:45;101433.95;;;-0.40;83.47
34073;BME280;20346;52.702;16.886;2023-12-07T10:42:33;101432.43;;;-0.40;83.44
34073;BME280;20346;52.702;16.886;2023-12-07T10:45:21;101433.91;;;-0.37;83.48
34073;BME280;20346;52.702;16.886;2023-12-07T10:48:10;101430.84;;;-0.37;83.44
34073;BME280;20346;52.702;16.886;2023-12-07T10:50:59;101430.74;;;-0.36;83.44
34073;BME280;20346;52.702;16.886;2023-12-07T10:53:48;101430.22;;;-0.36;83.44
34073;BME280;20346;52.702;16.886;2023-12-07T10:56:46;101430.60;;;-0.35;83.39
34073;BME280;20346;52.702;16.886;2023-12-07T10:59:32;101428.91;;;-0.35;83.44
34073;BME280;20346;52.702;16.886;2023-12-07T11:02:21;101424.66;;;-0.31;83.51
34073;BME280;20346;52.702;16.886;2023-12-07T11:05:08;101425.15;;;-0.27;83.57
34073;BME280;20346;52.702;16.886;2023-12-07T11:08:04;101429.34;;;-0.20;83.55
34073;BME280;20346;52.702;16.886;2023-12-07T11:14:06;101424.25;;;-0.20;83.55
34073;BME280;20346;52.702;16.886;2023-12-07T11:16:53;101419.48;;;-0.17;83.56
34073;BME280;20346;52.702;16.886;2023-12-07T11:19:43;101416.13;;;-0.16;83.56
34073;BME280;20346;52.702;16.886;2023-12-07T11:22:30;101420.66;;;-0.17;83.55
34073;BME280;20346;52.702;16.886;2023-12-07T11:25:17;101420.79;;;-0.18;83.55
34073;BME280;20346;52.702;16.886;2023-12-07T11:28:04;101419.65;;;-0.21;83.35
34073;BME280;20346;52.702;16.886;2023-12-07T11:30:51;101413.09;;;-0.24;83.45
34073;BME280;20346;52.702;16.886;2023-12-07T11:33:40;101409.10;;;-0.26;83.47
34073;BME280;20346;52.702;16.886;2023-12-07T11:36:27;101408.88;;;-0.23;83.54
34073;BME280;20346;52.702;16.886;2023-12-07T11:42:10;101408.66;;;-0.20;83.54
34073;BME280;20346;52.702;16.886;2023-12-07T11:44:56;101405.36;;;-0.18;83.56
34073;BME280;20346;52.702;16.886;2023-12-07T11:47:42;101404.79;;;-0.16;83.52
34073;BME280;20346;52.702;16.886;2023-12-07T11:50:34;101409.28;;;-0.17;83.31
34073;BME280;20346;52.702;16.886;2023-12-07T11:53:23;101404.56;;;-0.25;83.26
34073;BME280;20346;52.702;16.886;2023-12-07T11:56:10;101407.59;;;-0.22;83.52
34073;BME280;20346;52.702;16.886;2023-12-07T11:58:59;101411.48;;;-0.14;83.64
34073;BME280;20346;52.702;16.886;2023-12-07T12:01:48;101411.16;;;-0.09;83.59
34073;BME280;20346;52.702;16.886;2023-12-07T12:04:34;101409.38;;;-0.02;83.66
34073;BME280;20346;52.702;16.886;2023-12-07T12:07:20;101408.04;;;0.03;83.66
34073;BME280;20346;52.702;16.886;2023-12-07T12:10:07;101408.17;;;0.06;83.54
34073;BME280;20346;52.702;16.886;2023-12-07T12:12:53;101409.54;;;0.07;83.50
34073;BME280;20346;52.702;16.886;2023-12-07T12:15:40;101411.23;;;0.07;83.62
34073;BME280;20346;52.702;16.886;2023-12-07T12:18:27;101409.00;;;0.10;83.59
34073;BME280;20346;52.702;16.886;2023-12-07T12:21:13;101410.10;;;0.12;83.56
34073;BME280;20346;52.702;16.886;2023-12-07T12:23:58;101408.13;;;0.14;83.59
34073;BME280;20346;52.702;16.886;2023-12-07T12:26:45;101407.73;;;0.17;83.62
34073;BME280;20346;52.702;16.886;2023-12-07T12:29:33;101410.30;;;0.17;83.59
34073;BME280;20346;52.702;16.886;2023-12-07T12:32:19;101414.75;;;0.19;83.60
34073;BME280;20346;52.702;16.886;2023-12-07T12:35:08;101416.19;;;0.16;83.54
34073;BME280;20346;52.702;16.886;2023-12-07T12:37:54;101419.55;;;0.15;83.59
34073;BME280;20346;52.702;16.886;2023-12-07T12:40:43;101419.05;;;0.16;83.65
34073;BME280;20346;52.702;16.886;2023-12-07T12:43:31;101419.48;;;0.18;83.69
34073;BME280;20346;52.702;16.886;2023-12-07T12:46:17;101420.34;;;0.19;83.61
34073;BME280;20346;52.702;16.886;2023-12-07T12:49:04;101424.73;;;0.18;83.54
34073;BME280;20346;52.702;16.886;2023-12-07T12:51:50;101420.12;;;0.13;83.47
34073;BME280;20346;52.702;16.886;2023-12-07T12:54:36;101417.69;;;0.11;83.61
34073;BME280;20346;52.702;16.886;2023-12-07T12:57:22;101422.30;;;0.12;83.68
34073;BME280;20346;52.702;16.886;2023-12-07T13:00:09;101424.21;;;0.13;83.64
34073;BME280;20346;52.702;16.886;2023-12-07T13:02:55;101424.77;;;0.15;83.71
34073;BME280;20346;52.702;16.886;2023-12-07T13:05:41;101426.61;;;0.14;83.65
34073;BME280;20346;52.702;16.886;2023-12-07T13:08:27;101425.25;;;0.14;83.69
34073;BME280;20346;52.702;16.886;2023-12-07T13:11:17;101424.73;;;0.14;83.54
34073;BME280;20346;52.702;16.886;2023-12-07T13:14:03;101417.13;;;0.14;83.64
34073;BME280;20346;52.702;16.886;2023-12-07T13:16:52;101417.73;;;0.13;83.65
34073;BME280;20346;52.702;16.886;2023-12-07T13:19:39;101415.47;;;0.11;83.62
34073;BME280;20346;52.702;16.886;2023-12-07T13:22:25;101417.38;;;0.08;83.54
34073;BME280;20346;52.702;16.886;2023-12-07T13:25:11;101416.69;;;0.04;83.60
34073;BME280;20346;52.702;16.886;2023-12-07T13:28:00;101416.39;;;-0.01;83.59
34073;BME280;20346;52.702;16.886;2023-12-07T13:30:46;101420.84;;;-0.04;83.58
34073;BME280;20346;52.702;16.886;2023-12-07T13:33:32;101420.92;;;-0.06;83.62
34073;BME280;20346;52.702;16.886;2023-12-07T13:36:18;101425.94;;;-0.08;83.58
34073;BME280;20346;52.702;16.886;2023-12-07T13:39:04;101425.48;;;-0.11;83.60
34073;BME280;20346;52.702;16.886;2023-12-07T13:41:50;101426.09;;;-0.13;83.64
34073;BME280;20346;52.702;16.886;2023-12-07T13:44:38;101429.28;;;-0.13;83.61
34073;BME280;20346;52.702;16.886;2023-12-07T13:47:24;101435.14;;;-0.15;83.60
34073;BME280;20346;52.702;16.886;2023-12-07T13:50:16;101436.04;;;-0.18;83.61
34073;BME280;20346;52.702;16.886;2023-12-07T13:53:02;101435.88;;;-0.22;83.55
34073;BME280;20346;52.702;16.886;2023-12-07T13:55:49;101436.44;;;-0.25;83.58
34073;BME280;20346;52.702;16.886;2023-12-07T13:58:37;101437.35;;;-0.27;83.61
34073;BME280;20346;52.702;16.886;2023-12-07T14:01:25;101436.08;;;-0.29;83.62
34073;BME280;20346;52.702;16.886;2023-12-07T14:04:12;101439.01;;;-0.32;83.64
34073;BME280;20346;52.702;16.886;2023-12-07T14:07:12;101438.27;;;-0.34;83.67
34073;BME280;20346;52.702;16.886;2023-12-07T14:09:59;101440.73;;;-0.35;83.61
34073;BME280;20346;52.702;16.886;2023-12-07T14:12:46;101444.54;;;-0.38;83.55
34073;BME280;20346;52.702;16.886;2023-12-07T14:15:32;101443.06;;;-0.41;83.59
34073;BME280;20346;52.702;16.886;2023-12-07T14:18:20;101444.83;;;-0.43;83.62
34073;BME280;20346;52.702;16.886;2023-12-07T14:21:06;101444.76;;;-0.44;83.57
34073;BME280;20346;52.702;16.886;2023-12-07T14:23:52;101446.70;;;-0.47;83.62
34073;BME280;20346;52.702;16.886;2023-12-07T14:26:44;101452.06;;;-0.48;83.61
34073;BME280;20346;52.702;16.886;2023-12-07T14:29:31;101455.75;;;-0.49;83.61